Flight Track Log - Related Links

Times and Time Zones

All times are in EDT time to prevent confusion due to time zone crossing. See the EJA922 flight status page for this flight to view local times or setup timezone preferences in your user account.

Time Position Orientation Groundspeed Altitude Reporting Facility
EDT Latitude Longitude Course Direction KTS MPH feet Rate Location/Type
Wed 02:32:52 PM 33.1167 -117.3167 314° West 188 216 2,100  Level Southern California TRACON
Wed 02:33:53 PM 33.1167 -117.3833 270° West 221 254 5,700 3,153 Climbing Southern California TRACON
Wed 02:35:09 PM 33.1039 -117.4753 261° West 227 261 9,300 1,870 Climbing Los Angeles Center
Wed 02:36:11 PM 33.1006 -117.5597 267° West 251 289 10,000 432 Climbing Los Angeles Center
Wed 02:37:00 PM 33.1333 -117.6167 305° West 249 287 10,100 58 Climbing Southern California TRACON
Wed 02:37:54 PM 33.1667 -117.6833 301° West 247 284 10,100 -421 Level Southern California TRACON
Wed 02:38:00 PM 33.3383 -117.5435 314° West  Level FlightAware Approximate
Wed 02:38:54 PM 33.2000 -117.7500 301° West 246 283 9,300  Level Southern California TRACON
Wed 02:39:54 PM 33.2333 -117.8167 301° West 233 268 8,200 -1,091 Descending Southern California TRACON
Wed 02:40:55 PM 33.2833 -117.8833 312° West 227 261 7,100 -1,438 Descending Southern California TRACON
Wed 02:41:55 PM 33.3167 -117.9333 309° West 235 270 5,300 -1,950 Descending Southern California TRACON
Wed 02:42:55 PM 33.3667 -117.9833 320° Northwest 223 257 3,200 -1,516 Descending Southern California TRACON
Wed 02:43:26 PM 33.3925 -117.9864 354° North 222 255 3,000 -65 Descending Los Angeles Center
Wed 02:44:28 PM 33.4675 -118.0117 344° North 227 261 3,100  Climbing Los Angeles Center
Wed 02:45:30 PM 33.5306 -118.0344 343° North 233 268 3,000 -48 Descending Los Angeles Center
Wed 02:46:32 PM 33.5944 -118.0578 343° North 237 273 3,000 -629 Level Los Angeles Center
Wed 02:47:34 PM 33.6536 -118.0464 North 226 260 1,700 -629 Descending Los Angeles Center
Wed 02:48:36 PM 33.7028 -118.0247 20° North 204 235 1,700 -48 Level Los Angeles Center
Wed 02:49:38 PM 33.7497 -118.0664 324° Northwest 206 237 1,600 -384 Descending Los Angeles Center
Wed 02:50:41 PM 33.7850 -118.1131 312° West 198 228 900 -720 Descending Los Angeles Center
Wed 02:51:43 PM 33.8131 -118.1458 316° Northwest 165 190 100 -774 Descending Los Angeles Center
Wed 02:53:00 PM 33.8167 -118.1500 335° Northwest  Level FlightAware Approximate
Wed 03:00:00 PM 33.8177 -118.1517 335° Northwest  Level Estimated

Login

Don't have an account? Register now (free) for customized features, flight alerts, and more!